createdAt,value
2019-03-16T00:00:30.869Z,6.38
2019-03-16T00:05:35.670Z,6.57
2019-03-16T00:10:40.494Z,6.53
2019-03-16T00:15:45.156Z,6.28
2019-03-16T00:20:49.896Z,6.24
2019-03-16T00:25:54.802Z,5.39
2019-03-16T00:30:59.586Z,5.90
2019-03-16T00:36:04.329Z,5.87
2019-03-16T00:41:09.194Z,5.44
2019-03-16T00:46:13.929Z,5.85
2019-03-16T00:51:18.659Z,6.19
2019-03-16T00:56:23.403Z,5.40
2019-03-16T01:01:28.031Z,4.89
2019-03-16T01:06:33.810Z,5.02
2019-03-16T01:11:39.576Z,5.46
2019-03-16T01:16:44.316Z,5.68
2019-03-16T01:21:48.957Z,6.04
2019-03-16T01:26:53.702Z,5.45
2019-03-16T01:31:58.232Z,5.08
2019-03-16T01:37:02.878Z,5.39
2019-03-16T01:42:07.623Z,5.95
2019-03-16T01:47:12.472Z,5.59
2019-03-16T01:52:17.210Z,5.63
2019-03-16T01:57:21.949Z,5.75
2019-03-16T02:02:26.694Z,5.88
2019-03-16T02:07:31.642Z,5.86
2019-03-16T02:12:36.383Z,6.00
2019-03-16T02:17:41.126Z,5.80
2019-03-16T02:22:45.976Z,5.77
2019-03-16T02:27:50.716Z,6.13
2019-03-16T02:33:11.051Z,5.95
2019-03-16T02:38:01.639Z,6.19
2019-03-16T02:43:06.375Z,5.78
2019-03-16T02:48:11.077Z,5.28
2019-03-16T02:53:15.867Z,5.50
2019-03-16T02:58:20.605Z,5.77
2019-03-16T03:03:29.905Z,5.27
2019-03-16T03:08:31.627Z,5.80
2019-03-16T03:13:36.573Z,5.74
2019-03-16T03:18:43.903Z,6.11
2019-03-16T03:23:48.620Z,5.83
2019-03-16T03:28:53.164Z,6.12
2019-03-16T03:34:02.122Z,6.77
2019-03-16T03:39:06.849Z,7.26
2019-03-16T03:44:11.799Z,7.25
2019-03-16T03:49:16.540Z,6.96
2019-03-16T03:54:21.278Z,7.36
2019-03-16T03:59:25.943Z,7.14
2019-03-16T04:04:30.659Z,6.94
2019-03-16T04:09:35.400Z,7.00
2019-03-16T04:14:40.147Z,7.01
2019-03-16T04:19:44.886Z,7.17
2019-03-16T04:24:49.520Z,7.87
2019-03-16T04:29:54.270Z,7.65
2019-03-16T04:34:59.019Z,8.00
2019-03-16T04:40:04.470Z,7.83
2019-03-16T04:45:10.615Z,7.95
2019-03-16T04:50:15.286Z,8.13
2019-03-16T04:55:19.919Z,7.50
2019-03-16T05:00:26.137Z,7.91
2019-03-16T05:05:32.185Z,8.05
2019-03-16T05:10:36.819Z,7.73
2019-03-16T05:15:41.564Z,7.93
2019-03-16T05:20:46.165Z,8.06
2019-03-16T05:25:50.946Z,7.98
2019-03-16T05:30:55.590Z,8.69
2019-03-16T05:36:00.433Z,9.13
2019-03-16T05:41:08.347Z,9.15
2019-03-16T05:46:14.116Z,9.82
2019-03-16T05:51:18.860Z,10.29
2019-03-16T05:56:23.489Z,10.21
2019-03-16T06:01:28.242Z,10.51
2019-03-16T06:06:32.985Z,10.38
2019-03-16T06:11:37.657Z,10.49
2019-03-16T06:16:42.368Z,10.78
2019-03-16T06:21:49.982Z,10.69
2019-03-16T06:26:54.927Z,10.78
2019-03-16T06:31:59.678Z,11.14
2019-03-16T06:37:04.473Z,11.45
2019-03-16T06:42:10.695Z,11.67
2019-03-16T06:47:15.331Z,11.64
2019-03-16T06:52:20.080Z,12.08
2019-03-16T06:57:24.825Z,12.34
2019-03-16T07:02:29.564Z,12.37
2019-03-16T07:07:34.230Z,12.62
2019-03-16T07:12:39.057Z,12.74
2019-03-16T07:17:44.004Z,12.85
2019-03-16T07:22:48.634Z,12.95
2019-03-16T07:27:53.645Z,13.31
2019-03-16T07:32:58.428Z,13.39
2019-03-16T07:38:03.171Z,13.48
2019-03-16T07:43:07.998Z,13.52
2019-03-16T07:48:12.878Z,14.29
2019-03-16T07:53:17.708Z,14.38
2019-03-16T07:58:22.564Z,14.21
2019-03-16T08:03:27.398Z,14.71
2019-03-16T08:08:32.250Z,14.65
2019-03-16T08:13:37.094Z,15.28
2019-03-16T08:18:41.940Z,15.58
2019-03-16T08:23:46.683Z,15.01
2019-03-16T08:28:51.429Z,15.87
2019-03-16T08:33:56.370Z,16.20
2019-03-16T08:39:01.122Z,16.36
2019-03-16T08:44:06.270Z,17.05
2019-03-16T08:49:11.124Z,16.48
2019-03-16T08:54:15.753Z,17.19
2019-03-16T08:59:20.597Z,17.61
2019-03-16T09:04:25.558Z,18.08
2019-03-16T09:09:30.293Z,18.53
2019-03-16T09:14:35.046Z,18.40
2019-03-16T09:19:39.783Z,18.51
2019-03-16T09:24:45.560Z,19.01
2019-03-16T09:29:50.294Z,19.23
2019-03-16T09:34:55.032Z,19.50
2019-03-16T09:39:59.900Z,19.74
2019-03-16T09:45:05.100Z,20.31
2019-03-16T09:50:10.600Z,20.10
2019-03-16T09:55:15.295Z,20.30
2019-03-16T10:00:20.191Z,20.45
2019-03-16T10:05:24.934Z,20.59
2019-03-16T10:10:29.578Z,20.77
2019-03-16T10:15:34.417Z,20.37
2019-03-16T10:20:39.064Z,20.33
2019-03-16T10:25:43.801Z,20.29
2019-03-16T10:30:48.547Z,20.43
2019-03-16T10:35:53.391Z,20.10
2019-03-16T10:40:57.958Z,20.85
2019-03-16T10:46:02.563Z,20.94
2019-03-16T10:51:07.944Z,20.73
2019-03-16T10:56:12.679Z,20.75
2019-03-16T11:01:17.623Z,20.75
2019-03-16T11:06:23.433Z,20.35
2019-03-16T11:11:28.238Z,19.97
2019-03-16T11:16:32.881Z,20.41
2019-03-16T11:21:39.047Z,20.70
2019-03-16T11:26:43.802Z,20.49
2019-03-16T11:31:48.551Z,20.69
2019-03-16T11:36:53.392Z,21.29
2019-03-16T11:41:58.134Z,21.42
2019-03-16T11:47:02.877Z,21.43
2019-03-16T11:52:07.721Z,21.53
2019-03-16T11:57:12.467Z,21.74
2019-03-16T12:02:17.122Z,21.30
2019-03-16T12:07:21.852Z,20.44
2019-03-16T12:12:27.312Z,21.43
2019-03-16T12:17:32.065Z,21.09
2019-03-16T12:22:36.905Z,20.75
2019-03-16T12:27:41.543Z,20.84
2019-03-16T12:32:47.958Z,20.41
2019-03-16T12:37:52.775Z,20.76
2019-03-16T12:42:57.536Z,20.56
2019-03-16T12:48:08.536Z,20.54
2019-03-16T12:53:16.312Z,19.81
2019-03-16T12:58:21.271Z,19.72
2019-03-16T13:03:27.767Z,19.48
2019-03-16T13:08:32.393Z,20.10
2019-03-16T13:13:37.027Z,19.91
2019-03-16T13:18:41.679Z,19.81
2019-03-16T13:23:46.651Z,19.35
2019-03-16T13:28:51.478Z,19.16
2019-03-16T13:33:56.116Z,19.17
2019-03-16T13:39:00.962Z,19.60
2019-03-16T13:44:06.322Z,19.76
2019-03-16T13:49:11.201Z,19.71
2019-03-16T13:54:16.014Z,19.66
2019-03-16T13:59:20.767Z,19.63
2019-03-16T14:04:27.653Z,20.15
2019-03-16T14:09:32.504Z,19.80
2019-03-16T14:14:37.420Z,20.20
2019-03-16T14:19:42.194Z,19.80
2019-03-16T14:24:50.146Z,19.53
2019-03-16T14:29:54.750Z,19.96
2019-03-16T14:34:59.490Z,19.81
2019-03-16T14:40:06.747Z,19.69
2019-03-16T14:45:13.146Z,19.65
2019-03-16T14:50:19.492Z,19.81
2019-03-16T14:55:24.205Z,19.48
2019-03-16T15:00:38.270Z,19.60
2019-03-16T15:05:38.507Z,19.41
2019-03-16T15:10:43.347Z,19.61
2019-03-16T15:15:48.093Z,19.69
2019-03-16T15:20:52.838Z,19.80
2019-03-16T15:25:59.214Z,19.77
2019-03-16T15:31:04.168Z,19.96
2019-03-16T15:36:09.907Z,19.79
2019-03-16T15:41:14.675Z,19.81
2019-03-16T15:46:23.353Z,19.57
2019-03-16T15:51:27.968Z,19.73
2019-03-16T15:56:32.795Z,19.72
2019-03-16T16:01:37.377Z,19.68
2019-03-16T16:06:42.289Z,19.54
2019-03-16T16:11:47.131Z,19.45
2019-03-16T16:16:51.873Z,18.77
2019-03-16T16:21:57.134Z,19.12
2019-03-16T16:27:01.879Z,18.80
2019-03-16T16:32:06.618Z,18.69
2019-03-16T16:37:15.084Z,18.68
2019-03-16T16:42:27.162Z,17.82
2019-03-16T16:47:38.433Z,17.65
2019-03-16T16:52:51.095Z,17.83
2019-03-16T16:58:00.153Z,17.81
2019-03-16T17:03:09.521Z,17.69
2019-03-16T17:08:18.159Z,17.66
2019-03-16T17:13:23.578Z,17.31
2019-03-16T17:18:29.452Z,16.30
2019-03-16T17:23:34.296Z,16.95
2019-03-16T17:28:39.244Z,16.29
2019-03-16T17:33:43.995Z,16.84
2019-03-16T17:38:48.728Z,16.97
2019-03-16T17:43:53.364Z,16.86
2019-03-16T17:48:58.018Z,16.92
2019-03-16T17:54:02.862Z,16.94
2019-03-16T17:59:07.606Z,17.00
2019-03-16T18:04:12.346Z,16.85
2019-03-16T18:09:17.291Z,16.98
2019-03-16T18:14:21.988Z,16.73
2019-03-16T18:19:26.675Z,16.87
2019-03-16T18:24:31.420Z,16.92
2019-03-16T18:29:36.277Z,17.06
2019-03-16T18:34:41.113Z,17.04
2019-03-16T18:39:45.780Z,16.85
2019-03-16T18:44:51.011Z,16.76
2019-03-16T18:49:55.855Z,16.38
2019-03-16T18:55:00.701Z,15.91
2019-03-16T19:00:11.830Z,16.13
2019-03-16T19:05:17.732Z,16.09
2019-03-16T19:10:22.892Z,16.09
2019-03-16T19:15:28.582Z,15.87
2019-03-16T19:20:33.395Z,15.38
2019-03-16T19:25:40.157Z,15.07
2019-03-16T19:30:45.988Z,15.19
2019-03-16T19:35:50.894Z,15.17
2019-03-16T19:40:55.591Z,14.72
2019-03-16T19:46:00.673Z,14.45
2019-03-16T19:51:05.730Z,14.60
2019-03-16T19:56:10.588Z,14.50
2019-03-16T20:01:15.541Z,15.03
2019-03-16T20:06:25.691Z,14.48
2019-03-16T20:11:26.800Z,14.02
2019-03-16T20:16:31.543Z,14.36
2019-03-16T20:21:38.387Z,15.17
2019-03-16T20:26:43.183Z,15.23
2019-03-16T20:31:47.832Z,15.43
2019-03-16T20:36:53.067Z,15.36
2019-03-16T20:41:58.322Z,14.92
2019-03-16T20:47:04.798Z,14.52
2019-03-16T20:52:09.767Z,14.27
2019-03-16T20:57:15.554Z,14.12
2019-03-16T21:02:21.824Z,14.74
2019-03-16T21:07:26.940Z,14.97
2019-03-16T21:12:33.488Z,15.06
2019-03-16T21:17:39.809Z,14.97
2019-03-16T21:22:44.956Z,14.81
2019-03-16T21:27:49.875Z,14.95
2019-03-16T21:32:56.671Z,14.68
2019-03-16T21:38:01.469Z,14.66
2019-03-16T21:43:07.381Z,14.53
2019-03-16T21:48:12.082Z,13.88
2019-03-16T21:53:17.460Z,14.36
2019-03-16T21:58:22.188Z,13.57
2019-03-16T22:03:27.028Z,14.31
2019-03-16T22:08:31.878Z,14.24
2019-03-16T22:13:37.410Z,13.77
2019-03-16T22:18:42.175Z,14.18
2019-03-16T22:23:47.844Z,14.04
2019-03-16T22:28:53.782Z,13.84
2019-03-16T22:33:58.781Z,13.69
2019-03-16T22:39:04.111Z,13.42
2019-03-16T22:44:08.840Z,13.16
2019-03-16T22:49:13.574Z,13.35
2019-03-16T22:54:19.306Z,12.66
2019-03-16T22:59:24.116Z,12.88
2019-03-16T23:04:28.752Z,12.61
2019-03-16T23:09:33.501Z,12.63
2019-03-16T23:14:38.242Z,12.40
2019-03-16T23:19:44.728Z,12.67
2019-03-16T23:24:49.914Z,13.10
2019-03-16T23:29:55.937Z,12.38
2019-03-16T23:35:01.697Z,12.65
2019-03-16T23:40:13.178Z,12.54
2019-03-16T23:45:18.744Z,12.26
2019-03-16T23:50:24.147Z,12.29
2019-03-16T23:55:28.988Z,12.17
